This is the latest recevied weather packets stored in our database for station/object N5KR. If no packets are shown the sender has not sent any weather packets the latest 10 day(s).
| Time | Temp. | Humidity | Pressure | Rain* | Wind** | Luminosity | Snow |
|---|---|---|---|---|---|---|---|
| 1777804805 | 14.44° C | 69% | 1020.5 hPa | 0 mm | - | 0 W/m² | - |
| 1777804504 | 14.44° C | 69% | 1020.6 hPa | 0 mm | - | 0 W/m² | - |
| 1777799704 | 15° C | 65% | 1020.4 hPa | 0 mm | - | 0 W/m² | - |
| 1777794907 | 16.11° C | 60% | 1020.5 hPa | 0 mm | - | 0 W/m² | - |
| 1777792207 | 16.67° C | 58% | 1020.8 hPa | 0 mm | - | 0 W/m² | - |
| 1777790407 | 17.22° C | 55% | 1020.7 hPa | 0 mm | - | 0 W/m² | - |
| 1777789507 | 17.22° C | 56% | 1020.7 hPa | 0 mm | - | 0 W/m² | - |
| 1777783807 | 17.78° C | 52% | 1020.3 hPa | 0 mm | - | 0 W/m² | - |
| 1777783206 | 18.33° C | 51% | 1020.3 hPa | 0 mm | - | 0 W/m² | - |
| 1777781707 | 18.33° C | 50% | 1020.2 hPa | 0 mm | - | 0 W/m² | - |
| 1777780806 | 18.89° C | 50% | 1020.2 hPa | 0 mm | - | 0 W/m² | - |
| 1777777206 | 17.78° C | 56% | 1019.9 hPa | 0 mm | - | 0 W/m² | - |
| 1777776006 | 18.33° C | 55% | 1019.8 hPa | 0 mm | - | 0 W/m² | - |
| 1777770906 | 21.11° C | 43% | 1019.4 hPa | 0 mm | - | 0 W/m² | - |
| 1777770306 | 21.67° C | 43% | 1019.3 hPa | 0 mm | - | 0 W/m² | - |
| 1777769706 | 22.22° C | 41% | 1019.3 hPa | 0 mm | - | 6 W/m² | - |
| 1777767606 | 23.33° C | 39% | 1019.2 hPa | 0 mm | - | 17 W/m² | - |
| 1777761606 | 24.44° C | 35% | 1019.6 hPa | 0 mm | - | 38 W/m² | - |
| 1777760705 | 24.44° C | 34% | 1019.7 hPa | 0 mm | - | 56 W/m² | - |
| 1777758906 | 24.44° C | 33% | 1019.7 hPa | 0 mm | - | 533 W/m² | - |
| 1777758006 | 24.44° C | 33% | 1020 hPa | 0 mm | - | 576 W/m² | - |
| 1777754405 | 24.44° C | 33% | 1020.6 hPa | 0 mm | - | 728 W/m² | - |
| 1777753805 | 25° C | 32% | 1020.8 hPa | 0 mm | - | 748 W/m² | - |
| 1777753206 | 24.44° C | 33% | 1020.8 hPa | 0 mm | - | 761 W/m² | - |
| 1777751406 | 24.44° C | 34% | 1021 hPa | 0 mm | - | 812 W/m² | - |
* Rain latest hour (hover to see other rain measurements)
** Current wind speed in m/s (hover to see current wind gust speed)